sensor_id;sensor_type;location;lat;lon;timestamp;temperature;humidity
55211;DHT22;41082;52.822;6.666;2023-08-17T00:00:10;17.10;99.90
55211;DHT22;41082;52.822;6.666;2023-08-17T00:02:39;17.20;99.90
55211;DHT22;41082;52.822;6.666;2023-08-17T00:05:05;17.10;99.90
55211;DHT22;41082;52.822;6.666;2023-08-17T00:07:32;17.20;99.90
55211;DHT22;41082;52.822;6.666;2023-08-17T00:09:58;17.20;99.90
55211;DHT22;41082;52.822;6.666;2023-08-17T00:12:23;17.20;99.90
55211;DHT22;41082;52.822;6.666;2023-08-17T00:14:49;17.10;99.90
55211;DHT22;41082;52.822;6.666;2023-08-17T00:17:14;17.20;99.90
55211;DHT22;41082;52.822;6.666;2023-08-17T00:19:40;17.20;99.90
55211;DHT22;41082;52.822;6.666;2023-08-17T00:22:06;17.10;99.90
55211;DHT22;41082;52.822;6.666;2023-08-17T00:24:32;17.10;99.90
55211;DHT22;41082;52.822;6.666;2023-08-17T00:26:58;17.10;99.90
55211;DHT22;41082;52.822;6.666;2023-08-17T00:29:24;17.00;99.90
55211;DHT22;41082;52.822;6.666;2023-08-17T00:31:49;17.00;99.90
55211;DHT22;41082;52.822;6.666;2023-08-17T00:34:15;17.00;99.90
55211;DHT22;41082;52.822;6.666;2023-08-17T00:36:40;16.90;99.90
55211;DHT22;41082;52.822;6.666;2023-08-17T00:39:07;16.90;99.90
55211;DHT22;41082;52.822;6.666;2023-08-17T00:41:33;16.90;99.90
55211;DHT22;41082;52.822;6.666;2023-08-17T00:44:00;16.90;99.90
55211;DHT22;41082;52.822;6.666;2023-08-17T00:46:26;16.90;99.90
55211;DHT22;41082;52.822;6.666;2023-08-17T00:48:53;16.90;99.90
55211;DHT22;41082;52.822;6.666;2023-08-17T00:51:24;16.80;99.90
55211;DHT22;41082;52.822;6.666;2023-08-17T00:53:58;16.80;99.90
55211;DHT22;41082;52.822;6.666;2023-08-17T00:56:24;16.80;99.90
55211;DHT22;41082;52.822;6.666;2023-08-17T00:58:50;16.70;99.90
55211;DHT22;41082;52.822;6.666;2023-08-17T01:01:16;16.70;99.90
55211;DHT22;41082;52.822;6.666;2023-08-17T01:03:42;16.70;99.90
55211;DHT22;41082;52.822;6.666;2023-08-17T01:06:08;16.70;99.90
55211;DHT22;41082;52.822;6.666;2023-08-17T01:08:35;16.60;99.90
55211;DHT22;41082;52.822;6.666;2023-08-17T01:11:11;16.60;99.90
55211;DHT22;41082;52.822;6.666;2023-08-17T01:13:47;16.60;99.90
55211;DHT22;41082;52.822;6.666;2023-08-17T01:16:20;16.60;99.90
55211;DHT22;41082;52.822;6.666;2023-08-17T01:18:48;16.60;99.90
55211;DHT22;41082;52.822;6.666;2023-08-17T01:21:17;16.60;99.90
55211;DHT22;41082;52.822;6.666;2023-08-17T01:23:45;16.60;99.90
55211;DHT22;41082;52.822;6.666;2023-08-17T01:26:11;16.60;99.90
55211;DHT22;41082;52.822;6.666;2023-08-17T01:28:44;16.60;99.90
55211;DHT22;41082;52.822;6.666;2023-08-17T01:31:40;16.60;99.90
55211;DHT22;41082;52.822;6.666;2023-08-17T01:34:10;16.70;99.90
55211;DHT22;41082;52.822;6.666;2023-08-17T01:36:47;16.70;99.90
55211;DHT22;41082;52.822;6.666;2023-08-17T01:39:16;16.70;99.90
55211;DHT22;41082;52.822;6.666;2023-08-17T01:41:43;16.70;99.90
55211;DHT22;41082;52.822;6.666;2023-08-17T01:44:11;16.70;99.90
55211;DHT22;41082;52.822;6.666;2023-08-17T01:46:38;16.60;99.90
55211;DHT22;41082;52.822;6.666;2023-08-17T01:49:04;16.70;99.90
55211;DHT22;41082;52.822;6.666;2023-08-17T01:51:29;16.60;99.90
55211;DHT22;41082;52.822;6.666;2023-08-17T01:53:55;16.70;99.90
55211;DHT22;41082;52.822;6.666;2023-08-17T01:56:21;16.70;99.90
55211;DHT22;41082;52.822;6.666;2023-08-17T01:58:46;16.70;99.90
55211;DHT22;41082;52.822;6.666;2023-08-17T02:01:12;16.70;99.90
55211;DHT22;41082;52.822;6.666;2023-08-17T02:03:37;16.70;99.90
55211;DHT22;41082;52.822;6.666;2023-08-17T02:06:03;16.70;99.90
55211;DHT22;41082;52.822;6.666;2023-08-17T02:08:29;16.70;99.90
55211;DHT22;41082;52.822;6.666;2023-08-17T02:10:55;16.70;99.90
55211;DHT22;41082;52.822;6.666;2023-08-17T02:13:21;16.60;99.90
55211;DHT22;41082;52.822;6.666;2023-08-17T02:15:47;16.60;99.90
55211;DHT22;41082;52.822;6.666;2023-08-17T02:18:12;16.60;99.90
55211;DHT22;41082;52.822;6.666;2023-08-17T02:20:38;16.50;99.90
55211;DHT22;41082;52.822;6.666;2023-08-17T02:23:04;16.50;99.90
55211;DHT22;41082;52.822;6.666;2023-08-17T02:25:29;16.50;99.90
55211;DHT22;41082;52.822;6.666;2023-08-17T02:28:01;16.50;99.90
55211;DHT22;41082;52.822;6.666;2023-08-17T02:30:27;16.60;99.90
55211;DHT22;41082;52.822;6.666;2023-08-17T02:32:53;16.50;99.90
55211;DHT22;41082;52.822;6.666;2023-08-17T02:35:18;16.50;99.90
55211;DHT22;41082;52.822;6.666;2023-08-17T02:37:44;16.50;99.90
55211;DHT22;41082;52.822;6.666;2023-08-17T02:40:10;16.50;99.90
55211;DHT22;41082;52.822;6.666;2023-08-17T02:42:35;16.50;99.90
55211;DHT22;41082;52.822;6.666;2023-08-17T02:45:01;16.60;99.90
55211;DHT22;41082;52.822;6.666;2023-08-17T02:47:27;16.60;99.90
55211;DHT22;41082;52.822;6.666;2023-08-17T02:49:52;16.60;99.90
55211;DHT22;41082;52.822;6.666;2023-08-17T02:52:18;16.60;99.90
55211;DHT22;41082;52.822;6.666;2023-08-17T02:54:43;16.60;99.90
55211;DHT22;41082;52.822;6.666;2023-08-17T02:57:09;16.60;99.90
55211;DHT22;41082;52.822;6.666;2023-08-17T02:59:35;16.60;99.90
55211;DHT22;41082;52.822;6.666;2023-08-17T03:02:00;16.70;99.90
55211;DHT22;41082;52.822;6.666;2023-08-17T03:04:26;16.60;99.90
55211;DHT22;41082;52.822;6.666;2023-08-17T03:06:51;16.60;99.90
55211;DHT22;41082;52.822;6.666;2023-08-17T03:09:17;16.60;99.90
55211;DHT22;41082;52.822;6.666;2023-08-17T03:11:42;16.60;99.90
55211;DHT22;41082;52.822;6.666;2023-08-17T03:14:08;16.60;99.90
55211;DHT22;41082;52.822;6.666;2023-08-17T03:16:33;16.60;99.90
55211;DHT22;41082;52.822;6.666;2023-08-17T03:18:59;16.60;99.90
55211;DHT22;41082;52.822;6.666;2023-08-17T03:21:24;16.60;99.90
55211;DHT22;41082;52.822;6.666;2023-08-17T03:23:50;16.60;99.90
55211;DHT22;41082;52.822;6.666;2023-08-17T03:26:16;16.60;99.90
55211;DHT22;41082;52.822;6.666;2023-08-17T03:28:41;16.60;99.90
55211;DHT22;41082;52.822;6.666;2023-08-17T03:31:07;16.60;99.90
55211;DHT22;41082;52.822;6.666;2023-08-17T03:33:35;16.60;99.90
55211;DHT22;41082;52.822;6.666;2023-08-17T03:36:01;16.60;99.90
55211;DHT22;41082;52.822;6.666;2023-08-17T03:38:27;16.60;99.90
55211;DHT22;41082;52.822;6.666;2023-08-17T03:40:52;16.60;99.90
55211;DHT22;41082;52.822;6.666;2023-08-17T03:43:18;16.60;99.90
55211;DHT22;41082;52.822;6.666;2023-08-17T03:45:43;16.60;99.90
55211;DHT22;41082;52.822;6.666;2023-08-17T03:48:09;16.60;99.90
55211;DHT22;41082;52.822;6.666;2023-08-17T03:50:35;16.60;99.90
55211;DHT22;41082;52.822;6.666;2023-08-17T03:53:00;16.50;99.90
55211;DHT22;41082;52.822;6.666;2023-08-17T03:55:26;16.60;99.90
55211;DHT22;41082;52.822;6.666;2023-08-17T03:57:52;16.60;99.90
55211;DHT22;41082;52.822;6.666;2023-08-17T04:00:17;16.60;99.90
55211;DHT22;41082;52.822;6.666;2023-08-17T04:02:43;16.60;99.90
55211;DHT22;41082;52.822;6.666;2023-08-17T04:05:09;16.60;99.90
55211;DHT22;41082;52.822;6.666;2023-08-17T04:07:35;16.60;99.90
55211;DHT22;41082;52.822;6.666;2023-08-17T04:10:01;16.60;99.90
55211;DHT22;41082;52.822;6.666;2023-08-17T04:12:27;16.60;99.90
55211;DHT22;41082;52.822;6.666;2023-08-17T04:14:52;16.60;99.90
55211;DHT22;41082;52.822;6.666;2023-08-17T04:17:18;16.60;99.90
55211;DHT22;41082;52.822;6.666;2023-08-17T04:19:43;16.60;99.90
55211;DHT22;41082;52.822;6.666;2023-08-17T04:22:09;16.60;99.90
55211;DHT22;41082;52.822;6.666;2023-08-17T04:24:35;16.60;99.90
55211;DHT22;41082;52.822;6.666;2023-08-17T04:27:01;16.60;99.90
55211;DHT22;41082;52.822;6.666;2023-08-17T04:29:26;16.70;99.90
55211;DHT22;41082;52.822;6.666;2023-08-17T04:31:52;16.70;99.90
55211;DHT22;41082;52.822;6.666;2023-08-17T04:34:18;16.70;99.90
55211;DHT22;41082;52.822;6.666;2023-08-17T04:36:43;16.70;99.90
55211;DHT22;41082;52.822;6.666;2023-08-17T04:39:09;16.70;99.90
55211;DHT22;41082;52.822;6.666;2023-08-17T04:41:35;16.70;99.90
55211;DHT22;41082;52.822;6.666;2023-08-17T04:44:00;16.70;99.90
55211;DHT22;41082;52.822;6.666;2023-08-17T04:46:26;16.70;99.90
55211;DHT22;41082;52.822;6.666;2023-08-17T04:48:51;16.60;99.90
55211;DHT22;41082;52.822;6.666;2023-08-17T04:51:18;16.60;99.90
55211;DHT22;41082;52.822;6.666;2023-08-17T04:53:43;16.60;99.90
55211;DHT22;41082;52.822;6.666;2023-08-17T04:56:09;16.60;99.90
55211;DHT22;41082;52.822;6.666;2023-08-17T04:58:35;16.60;99.90
55211;DHT22;41082;52.822;6.666;2023-08-17T05:01:00;16.60;99.90
55211;DHT22;41082;52.822;6.666;2023-08-17T05:03:26;16.60;99.90
55211;DHT22;41082;52.822;6.666;2023-08-17T05:05:54;16.70;99.90
55211;DHT22;41082;52.822;6.666;2023-08-17T05:08:20;16.70;99.90
55211;DHT22;41082;52.822;6.666;2023-08-17T05:10:48;16.70;99.90
55211;DHT22;41082;52.822;6.666;2023-08-17T05:13:13;16.70;99.90
55211;DHT22;41082;52.822;6.666;2023-08-17T05:15:39;16.70;99.90
55211;DHT22;41082;52.822;6.666;2023-08-17T05:18:04;16.70;99.90
55211;DHT22;41082;52.822;6.666;2023-08-17T05:20:30;16.70;99.90
55211;DHT22;41082;52.822;6.666;2023-08-17T05:22:56;16.70;99.90
55211;DHT22;41082;52.822;6.666;2023-08-17T05:25:21;16.70;99.90
55211;DHT22;41082;52.822;6.666;2023-08-17T05:27:48;16.70;99.90
55211;DHT22;41082;52.822;6.666;2023-08-17T05:30:15;16.70;99.90
55211;DHT22;41082;52.822;6.666;2023-08-17T05:32:41;16.70;99.90
55211;DHT22;41082;52.822;6.666;2023-08-17T05:35:07;16.60;99.90
55211;DHT22;41082;52.822;6.666;2023-08-17T05:37:32;16.60;99.90
55211;DHT22;41082;52.822;6.666;2023-08-17T05:39:58;16.60;99.90
55211;DHT22;41082;52.822;6.666;2023-08-17T05:42:23;16.70;99.90
55211;DHT22;41082;52.822;6.666;2023-08-17T05:44:49;16.70;99.90
55211;DHT22;41082;52.822;6.666;2023-08-17T05:47:15;16.80;99.90
55211;DHT22;41082;52.822;6.666;2023-08-17T05:49:43;16.80;99.90
55211;DHT22;41082;52.822;6.666;2023-08-17T05:52:08;16.80;99.90
55211;DHT22;41082;52.822;6.666;2023-08-17T05:54:34;16.90;99.90
55211;DHT22;41082;52.822;6.666;2023-08-17T05:57:00;16.90;99.90
55211;DHT22;41082;52.822;6.666;2023-08-17T05:59:25;17.00;99.90
55211;DHT22;41082;52.822;6.666;2023-08-17T06:01:51;17.00;99.90
55211;DHT22;41082;52.822;6.666;2023-08-17T06:04:16;17.10;99.90
55211;DHT22;41082;52.822;6.666;2023-08-17T06:06:42;17.10;99.90
55211;DHT22;41082;52.822;6.666;2023-08-17T06:09:07;17.10;99.90
55211;DHT22;41082;52.822;6.666;2023-08-17T06:11:34;17.20;99.90
55211;DHT22;41082;52.822;6.666;2023-08-17T06:13:59;17.20;99.90
55211;DHT22;41082;52.822;6.666;2023-08-17T06:16:25;17.20;99.90
55211;DHT22;41082;52.822;6.666;2023-08-17T06:18:51;17.20;99.90
55211;DHT22;41082;52.822;6.666;2023-08-17T06:21:16;17.30;99.90
55211;DHT22;41082;52.822;6.666;2023-08-17T06:23:42;17.30;99.90
55211;DHT22;41082;52.822;6.666;2023-08-17T06:26:08;17.30;99.90
55211;DHT22;41082;52.822;6.666;2023-08-17T06:28:34;17.40;99.90
55211;DHT22;41082;52.822;6.666;2023-08-17T06:30:59;17.40;99.90
55211;DHT22;41082;52.822;6.666;2023-08-17T06:33:25;17.40;99.90
55211;DHT22;41082;52.822;6.666;2023-08-17T06:35:51;17.50;99.90
55211;DHT22;41082;52.822;6.666;2023-08-17T06:38:16;17.50;99.90
55211;DHT22;41082;52.822;6.666;2023-08-17T06:40:42;17.60;99.90
55211;DHT22;41082;52.822;6.666;2023-08-17T06:43:08;17.70;99.90
55211;DHT22;41082;52.822;6.666;2023-08-17T06:45:35;17.70;99.90
55211;DHT22;41082;52.822;6.666;2023-08-17T06:48:01;17.80;99.90
55211;DHT22;41082;52.822;6.666;2023-08-17T06:50:26;17.90;99.90
55211;DHT22;41082;52.822;6.666;2023-08-17T06:52:53;18.10;99.90
55211;DHT22;41082;52.822;6.666;2023-08-17T06:55:19;18.20;99.90
55211;DHT22;41082;52.822;6.666;2023-08-17T06:57:45;18.20;99.90
55211;DHT22;41082;52.822;6.666;2023-08-17T07:00:11;18.20;99.90
55211;DHT22;41082;52.822;6.666;2023-08-17T07:02:37;18.20;99.90
55211;DHT22;41082;52.822;6.666;2023-08-17T07:05:03;18.20;99.90
55211;DHT22;41082;52.822;6.666;2023-08-17T07:07:31;18.20;99.90
55211;DHT22;41082;52.822;6.666;2023-08-17T07:09:57;18.20;99.90
55211;DHT22;41082;52.822;6.666;2023-08-17T07:12:23;18.20;99.90
55211;DHT22;41082;52.822;6.666;2023-08-17T07:14:53;18.20;99.90
55211;DHT22;41082;52.822;6.666;2023-08-17T07:17:19;18.20;99.90
55211;DHT22;41082;52.822;6.666;2023-08-17T07:19:44;18.20;99.90
55211;DHT22;41082;52.822;6.666;2023-08-17T07:22:10;18.20;99.90
55211;DHT22;41082;52.822;6.666;2023-08-17T07:24:36;18.20;99.90
55211;DHT22;41082;52.822;6.666;2023-08-17T07:27:01;18.30;99.90
55211;DHT22;41082;52.822;6.666;2023-08-17T07:29:27;18.40;99.90
55211;DHT22;41082;52.822;6.666;2023-08-17T07:31:52;18.40;99.90
55211;DHT22;41082;52.822;6.666;2023-08-17T07:34:19;18.40;99.90
55211;DHT22;41082;52.822;6.666;2023-08-17T07:36:45;18.50;99.90
55211;DHT22;41082;52.822;6.666;2023-08-17T07:39:11;18.60;99.90
55211;DHT22;41082;52.822;6.666;2023-08-17T07:41:36;18.50;99.90
55211;DHT22;41082;52.822;6.666;2023-08-17T07:44:02;18.60;99.90
55211;DHT22;41082;52.822;6.666;2023-08-17T07:46:28;18.60;99.90
55211;DHT22;41082;52.822;6.666;2023-08-17T07:48:53;18.70;99.90
55211;DHT22;41082;52.822;6.666;2023-08-17T07:51:19;18.80;99.90
55211;DHT22;41082;52.822;6.666;2023-08-17T07:53:45;18.80;99.90
55211;DHT22;41082;52.822;6.666;2023-08-17T07:56:10;18.90;99.90
55211;DHT22;41082;52.822;6.666;2023-08-17T07:58:36;19.00;99.90
55211;DHT22;41082;52.822;6.666;2023-08-17T08:01:01;19.20;99.90
55211;DHT22;41082;52.822;6.666;2023-08-17T08:03:27;19.20;99.90
55211;DHT22;41082;52.822;6.666;2023-08-17T08:05:53;19.20;99.90
55211;DHT22;41082;52.822;6.666;2023-08-17T08:08:18;19.30;99.90
55211;DHT22;41082;52.822;6.666;2023-08-17T08:10:45;19.20;99.90
55211;DHT22;41082;52.822;6.666;2023-08-17T08:13:11;19.30;99.90
55211;DHT22;41082;52.822;6.666;2023-08-17T08:15:37;19.30;99.90
55211;DHT22;41082;52.822;6.666;2023-08-17T08:18:02;19.40;99.90
55211;DHT22;41082;52.822;6.666;2023-08-17T08:20:28;19.40;99.90
55211;DHT22;41082;52.822;6.666;2023-08-17T08:22:54;19.40;99.90
55211;DHT22;41082;52.822;6.666;2023-08-17T08:25:20;19.50;99.90
55211;DHT22;41082;52.822;6.666;2023-08-17T08:27:45;19.50;99.90
55211;DHT22;41082;52.822;6.666;2023-08-17T08:30:11;19.50;99.90
55211;DHT22;41082;52.822;6.666;2023-08-17T08:32:36;19.60;99.90
55211;DHT22;41082;52.822;6.666;2023-08-17T08:35:02;19.60;99.90
55211;DHT22;41082;52.822;6.666;2023-08-17T08:37:28;19.70;99.90
55211;DHT22;41082;52.822;6.666;2023-08-17T08:39:55;19.70;99.90
55211;DHT22;41082;52.822;6.666;2023-08-17T08:42:22;19.70;99.90
55211;DHT22;41082;52.822;6.666;2023-08-17T08:44:48;19.80;99.90
55211;DHT22;41082;52.822;6.666;2023-08-17T08:47:17;19.80;99.90
55211;DHT22;41082;52.822;6.666;2023-08-17T08:50:00;19.90;99.90
55211;DHT22;41082;52.822;6.666;2023-08-17T08:52:33;20.10;99.90
55211;DHT22;41082;52.822;6.666;2023-08-17T08:55:09;20.20;99.90
55211;DHT22;41082;52.822;6.666;2023-08-17T08:57:37;20.20;99.90
55211;DHT22;41082;52.822;6.666;2023-08-17T09:00:02;20.20;99.90
55211;DHT22;41082;52.822;6.666;2023-08-17T09:02:30;20.20;99.90
55211;DHT22;41082;52.822;6.666;2023-08-17T09:04:56;20.10;99.90
55211;DHT22;41082;52.822;6.666;2023-08-17T09:07:22;20.10;99.90
55211;DHT22;41082;52.822;6.666;2023-08-17T09:09:48;20.00;99.90
55211;DHT22;41082;52.822;6.666;2023-08-17T09:12:14;20.00;99.90
55211;DHT22;41082;52.822;6.666;2023-08-17T09:14:40;19.90;99.90
55211;DHT22;41082;52.822;6.666;2023-08-17T09:17:07;19.90;99.90
55211;DHT22;41082;52.822;6.666;2023-08-17T09:19:33;19.90;99.90
55211;DHT22;41082;52.822;6.666;2023-08-17T09:22:00;19.90;99.90
55211;DHT22;41082;52.822;6.666;2023-08-17T09:24:36;19.90;99.90
55211;DHT22;41082;52.822;6.666;2023-08-17T09:27:02;19.90;99.90
55211;DHT22;41082;52.822;6.666;2023-08-17T09:29:28;20.00;99.90
55211;DHT22;41082;52.822;6.666;2023-08-17T09:32:03;20.00;99.90
55211;DHT22;41082;52.822;6.666;2023-08-17T09:34:30;19.90;99.90
55211;DHT22;41082;52.822;6.666;2023-08-17T09:36:57;19.80;99.90
55211;DHT22;41082;52.822;6.666;2023-08-17T09:39:27;19.90;99.90
55211;DHT22;41082;52.822;6.666;2023-08-17T09:41:55;19.80;99.90
55211;DHT22;41082;52.822;6.666;2023-08-17T09:44:20;19.90;99.90
55211;DHT22;41082;52.822;6.666;2023-08-17T09:46:47;20.00;99.90
55211;DHT22;41082;52.822;6.666;2023-08-17T09:49:12;20.00;99.90
55211;DHT22;41082;52.822;6.666;2023-08-17T09:51:41;20.10;99.90
55211;DHT22;41082;52.822;6.666;2023-08-17T09:54:07;20.10;99.90
55211;DHT22;41082;52.822;6.666;2023-08-17T09:56:33;20.10;99.90
55211;DHT22;41082;52.822;6.666;2023-08-17T09:58:59;20.10;99.90
55211;DHT22;41082;52.822;6.666;2023-08-17T10:01:25;20.20;99.90
55211;DHT22;41082;52.822;6.666;2023-08-17T10:03:53;20.20;99.90
55211;DHT22;41082;52.822;6.666;2023-08-17T10:06:22;20.30;99.90
55211;DHT22;41082;52.822;6.666;2023-08-17T10:08:51;20.30;99.90
55211;DHT22;41082;52.822;6.666;2023-08-17T10:11:19;20.40;99.90
55211;DHT22;41082;52.822;6.666;2023-08-17T10:14:05;20.40;99.90
55211;DHT22;41082;52.822;6.666;2023-08-17T10:16:45;20.40;99.90
55211;DHT22;41082;52.822;6.666;2023-08-17T10:19:33;20.40;99.90
55211;DHT22;41082;52.822;6.666;2023-08-17T10:22:11;20.50;99.90
55211;DHT22;41082;52.822;6.666;2023-08-17T10:24:38;20.50;99.90
55211;DHT22;41082;52.822;6.666;2023-08-17T10:27:05;20.50;99.90
55211;DHT22;41082;52.822;6.666;2023-08-17T10:29:31;20.60;99.90
55211;DHT22;41082;52.822;6.666;2023-08-17T10:32:00;20.60;99.90
55211;DHT22;41082;52.822;6.666;2023-08-17T10:34:27;20.60;99.90
55211;DHT22;41082;52.822;6.666;2023-08-17T10:36:53;20.60;99.90
55211;DHT22;41082;52.822;6.666;2023-08-17T10:39:27;20.60;99.90
55211;DHT22;41082;52.822;6.666;2023-08-17T10:41:53;20.60;99.90
55211;DHT22;41082;52.822;6.666;2023-08-17T10:44:42;20.70;99.90
55211;DHT22;41082;52.822;6.666;2023-08-17T10:47:30;20.70;99.90
55211;DHT22;41082;52.822;6.666;2023-08-17T10:50:03;20.80;99.90
55211;DHT22;41082;52.822;6.666;2023-08-17T10:52:34;21.00;99.90
55211;DHT22;41082;52.822;6.666;2023-08-17T10:55:05;21.10;99.90
55211;DHT22;41082;52.822;6.666;2023-08-17T10:57:36;21.10;99.90
55211;DHT22;41082;52.822;6.666;2023-08-17T11:02:33;21.10;99.90
55211;DHT22;41082;52.822;6.666;2023-08-17T11:05:00;21.10;99.90
55211;DHT22;41082;52.822;6.666;2023-08-17T11:07:27;21.10;99.90
55211;DHT22;41082;52.822;6.666;2023-08-17T11:09:54;21.10;99.90
55211;DHT22;41082;52.822;6.666;2023-08-17T11:12:26;21.20;99.90
55211;DHT22;41082;52.822;6.666;2023-08-17T11:14:52;21.10;99.90
55211;DHT22;41082;52.822;6.666;2023-08-17T11:17:20;21.10;99.90
55211;DHT22;41082;52.822;6.666;2023-08-17T11:19:46;21.20;99.90
55211;DHT22;41082;52.822;6.666;2023-08-17T11:22:12;21.30;99.90
55211;DHT22;41082;52.822;6.666;2023-08-17T11:24:38;21.40;99.90
55211;DHT22;41082;52.822;6.666;2023-08-17T11:27:05;21.50;99.90
55211;DHT22;41082;52.822;6.666;2023-08-17T11:29:32;21.60;99.90
55211;DHT22;41082;52.822;6.666;2023-08-17T11:31:58;21.70;99.90
55211;DHT22;41082;52.822;6.666;2023-08-17T11:34:24;21.80;99.90
55211;DHT22;41082;52.822;6.666;2023-08-17T11:36:49;21.90;99.90
55211;DHT22;41082;52.822;6.666;2023-08-17T11:39:15;22.00;99.90
55211;DHT22;41082;52.822;6.666;2023-08-17T11:41:41;22.10;99.90
55211;DHT22;41082;52.822;6.666;2023-08-17T11:44:06;22.10;99.90
55211;DHT22;41082;52.822;6.666;2023-08-17T11:46:32;22.10;99.90
55211;DHT22;41082;52.822;6.666;2023-08-17T11:49:01;22.10;99.90
55211;DHT22;41082;52.822;6.666;2023-08-17T11:51:30;22.10;99.90
55211;DHT22;41082;52.822;6.666;2023-08-17T11:53:59;22.20;99.90
55211;DHT22;41082;52.822;6.666;2023-08-17T11:56:25;22.30;99.90
55211;DHT22;41082;52.822;6.666;2023-08-17T11:58:50;22.30;99.90
55211;DHT22;41082;52.822;6.666;2023-08-17T12:01:16;22.30;99.90
55211;DHT22;41082;52.822;6.666;2023-08-17T12:03:42;22.30;99.90
55211;DHT22;41082;52.822;6.666;2023-08-17T12:06:08;22.30;99.90
55211;DHT22;41082;52.822;6.666;2023-08-17T12:08:34;22.30;99.90
55211;DHT22;41082;52.822;6.666;2023-08-17T12:11:00;22.20;99.90
55211;DHT22;41082;52.822;6.666;2023-08-17T12:13:33;22.20;99.90
55211;DHT22;41082;52.822;6.666;2023-08-17T12:15:59;22.20;99.90
55211;DHT22;41082;52.822;6.666;2023-08-17T12:18:25;22.20;99.90
55211;DHT22;41082;52.822;6.666;2023-08-17T12:20:54;22.20;99.90
55211;DHT22;41082;52.822;6.666;2023-08-17T12:23:20;22.20;99.90
55211;DHT22;41082;52.822;6.666;2023-08-17T12:25:45;22.20;99.90
55211;DHT22;41082;52.822;6.666;2023-08-17T12:28:14;22.20;99.90
55211;DHT22;41082;52.822;6.666;2023-08-17T12:30:40;22.30;99.90
55211;DHT22;41082;52.822;6.666;2023-08-17T12:33:05;22.30;99.90
55211;DHT22;41082;52.822;6.666;2023-08-17T12:35:32;22.30;99.90
55211;DHT22;41082;52.822;6.666;2023-08-17T12:37:57;22.40;99.90
55211;DHT22;41082;52.822;6.666;2023-08-17T12:40:23;22.30;99.90
55211;DHT22;41082;52.822;6.666;2023-08-17T12:42:49;22.40;99.90
55211;DHT22;41082;52.822;6.666;2023-08-17T12:45:15;22.50;99.90
55211;DHT22;41082;52.822;6.666;2023-08-17T12:47:41;22.50;99.90
55211;DHT22;41082;52.822;6.666;2023-08-17T12:50:07;22.60;99.90
55211;DHT22;41082;52.822;6.666;2023-08-17T12:52:33;22.70;99.90
55211;DHT22;41082;52.822;6.666;2023-08-17T12:54:59;22.70;99.90
55211;DHT22;41082;52.822;6.666;2023-08-17T12:57:25;22.70;99.90
55211;DHT22;41082;52.822;6.666;2023-08-17T12:59:52;22.80;99.90
55211;DHT22;41082;52.822;6.666;2023-08-17T13:02:20;22.80;99.90
55211;DHT22;41082;52.822;6.666;2023-08-17T13:04:45;22.70;99.90
55211;DHT22;41082;52.822;6.666;2023-08-17T13:07:11;22.70;99.90
55211;DHT22;41082;52.822;6.666;2023-08-17T13:09:36;22.70;99.90
55211;DHT22;41082;52.822;6.666;2023-08-17T13:12:02;22.80;99.90
55211;DHT22;41082;52.822;6.666;2023-08-17T13:14:28;22.80;99.90
55211;DHT22;41082;52.822;6.666;2023-08-17T13:16:54;22.80;99.90
55211;DHT22;41082;52.822;6.666;2023-08-17T13:19:19;22.90;99.90
55211;DHT22;41082;52.822;6.666;2023-08-17T13:21:45;22.80;99.90
55211;DHT22;41082;52.822;6.666;2023-08-17T13:24:11;22.90;99.90
55211;DHT22;41082;52.822;6.666;2023-08-17T13:26:37;22.90;99.90
55211;DHT22;41082;52.822;6.666;2023-08-17T13:29:02;22.90;99.90
55211;DHT22;41082;52.822;6.666;2023-08-17T13:31:29;22.90;99.90
55211;DHT22;41082;52.822;6.666;2023-08-17T13:33:54;22.90;99.90
55211;DHT22;41082;52.822;6.666;2023-08-17T13:36:20;22.90;99.90
55211;DHT22;41082;52.822;6.666;2023-08-17T13:38:46;22.80;99.90
55211;DHT22;41082;52.822;6.666;2023-08-17T13:41:12;22.80;99.90
55211;DHT22;41082;52.822;6.666;2023-08-17T13:43:37;22.70;99.90
55211;DHT22;41082;52.822;6.666;2023-08-17T13:46:03;22.70;99.90
55211;DHT22;41082;52.822;6.666;2023-08-17T13:48:29;22.70;99.90
55211;DHT22;41082;52.822;6.666;2023-08-17T13:50:55;22.60;99.90
55211;DHT22;41082;52.822;6.666;2023-08-17T13:53:20;22.70;99.90
55211;DHT22;41082;52.822;6.666;2023-08-17T13:55:46;22.70;99.90
55211;DHT22;41082;52.822;6.666;2023-08-17T13:58:11;22.70;99.90
55211;DHT22;41082;52.822;6.666;2023-08-17T14:00:37;22.70;99.90
55211;DHT22;41082;52.822;6.666;2023-08-17T14:03:03;22.70;99.90
55211;DHT22;41082;52.822;6.666;2023-08-17T14:05:29;22.70;99.90
55211;DHT22;41082;52.822;6.666;2023-08-17T14:07:55;22.70;99.90
55211;DHT22;41082;52.822;6.666;2023-08-17T14:10:20;22.70;99.90
55211;DHT22;41082;52.822;6.666;2023-08-17T14:12:46;22.70;99.90
55211;DHT22;41082;52.822;6.666;2023-08-17T14:15:11;22.70;99.90
55211;DHT22;41082;52.822;6.666;2023-08-17T14:17:37;22.70;99.90
55211;DHT22;41082;52.822;6.666;2023-08-17T14:20:03;22.70;99.90
55211;DHT22;41082;52.822;6.666;2023-08-17T14:22:30;22.70;99.90
55211;DHT22;41082;52.822;6.666;2023-08-17T14:24:55;22.60;99.90
55211;DHT22;41082;52.822;6.666;2023-08-17T14:27:21;22.60;99.90
55211;DHT22;41082;52.822;6.666;2023-08-17T14:29:47;22.60;99.90
55211;DHT22;41082;52.822;6.666;2023-08-17T14:32:12;22.60;99.90
55211;DHT22;41082;52.822;6.666;2023-08-17T14:34:38;22.60;99.90
55211;DHT22;41082;52.822;6.666;2023-08-17T14:37:03;22.60;99.90
55211;DHT22;41082;52.822;6.666;2023-08-17T14:39:29;22.60;99.90
55211;DHT22;41082;52.822;6.666;2023-08-17T14:41:54;22.50;99.90
55211;DHT22;41082;52.822;6.666;2023-08-17T14:44:20;22.50;99.90
55211;DHT22;41082;52.822;6.666;2023-08-17T14:46:46;22.50;99.90
55211;DHT22;41082;52.822;6.666;2023-08-17T14:49:12;22.50;99.90
55211;DHT22;41082;52.822;6.666;2023-08-17T14:51:39;22.40;99.90
55211;DHT22;41082;52.822;6.666;2023-08-17T14:54:05;22.40;99.90
55211;DHT22;41082;52.822;6.666;2023-08-17T14:56:31;22.30;99.90
55211;DHT22;41082;52.822;6.666;2023-08-17T14:58:56;22.30;99.90
55211;DHT22;41082;52.822;6.666;2023-08-17T15:01:22;22.30;99.90
55211;DHT22;41082;52.822;6.666;2023-08-17T15:03:48;22.20;99.90
55211;DHT22;41082;52.822;6.666;2023-08-17T15:06:13;22.10;99.90
55211;DHT22;41082;52.822;6.666;2023-08-17T15:08:39;22.10;99.90
55211;DHT22;41082;52.822;6.666;2023-08-17T15:11:04;22.00;99.90
55211;DHT22;41082;52.822;6.666;2023-08-17T15:13:30;22.00;99.90
55211;DHT22;41082;52.822;6.666;2023-08-17T15:15:56;22.00;99.90
55211;DHT22;41082;52.822;6.666;2023-08-17T15:18:22;22.00;99.90
55211;DHT22;41082;52.822;6.666;2023-08-17T15:20:47;21.90;99.90
55211;DHT22;41082;52.822;6.666;2023-08-17T15:23:13;21.90;99.90
55211;DHT22;41082;52.822;6.666;2023-08-17T15:25:38;21.90;99.90
55211;DHT22;41082;52.822;6.666;2023-08-17T15:28:04;21.90;99.90